Time;durP1;ratioP1;P1;durP2;ratioP2;P2;SDS_P1;SDS_P2;PMS_P1;PMS_P2;Temp;Humidity;BMP_temperature;BMP_pressure;BME280_temperature;BME280_humidity;BME280_pressure;Samples;Min_cycle;Max_cycle;Signal;HPM_P1;HPM_P2
2022/11/20 00:00:57;;;;;;;30.67;12.93;;;-1.00;99.90;;;;;;5006223;28;20460;-70
2022/11/20 00:03:23;;;;;;;28.58;13.35;;;-1.00;99.90;;;;;;5007036;28;20468;-70
2022/11/20 00:05:48;;;;;;;26.73;12.52;;;-1.00;99.90;;;;;;5007276;28;20079;-69
2022/11/20 00:08:14;;;;;;;27.88;13.10;;;-1.00;99.90;;;;;;5007577;28;20049;-70
2022/11/20 00:10:40;;;;;;;23.80;12.52;;;-1.00;99.90;;;;;;5005454;28;20038;-70
2022/11/20 00:13:07;;;;;;;22.00;12.48;;;-0.90;99.90;;;;;;4992948;28;20046;-70
2022/11/20 00:15:33;;;;;;;26.10;13.52;;;-1.00;99.90;;;;;;4989507;28;20046;-70
2022/11/20 00:17:59;;;;;;;24.23;13.43;;;-0.90;99.90;;;;;;5005704;28;20038;-70
2022/11/20 00:20:25;;;;;;;24.35;12.63;;;-0.90;99.90;;;;;;5007886;28;20117;-70
2022/11/20 00:22:51;;;;;;;27.45;12.63;;;-0.90;99.90;;;;;;5007787;28;20144;-70
2022/11/20 00:25:17;;;;;;;24.65;12.27;;;-0.90;99.90;;;;;;5005930;28;20037;-70
2022/11/20 00:27:42;;;;;;;26.05;12.95;;;-0.90;99.90;;;;;;5006609;28;20461;-70
2022/11/20 00:30:08;;;;;;;25.33;12.15;;;-0.90;99.90;;;;;;5006701;28;20128;-70
2022/11/20 00:32:34;;;;;;;25.10;12.82;;;-0.90;99.90;;;;;;5007666;28;20403;-70
2022/11/20 00:35:00;;;;;;;24.42;12.95;;;-0.90;99.90;;;;;;4996053;28;20050;-70
2022/11/20 00:37:26;;;;;;;24.63;12.63;;;-0.80;99.90;;;;;;4994240;28;20050;-70
2022/11/20 00:39:51;;;;;;;26.92;13.05;;;-0.80;99.90;;;;;;5010006;28;20037;-70
2022/11/20 00:42:17;;;;;;;25.10;12.55;;;-0.80;99.90;;;;;;5010322;28;20076;-70
2022/11/20 00:44:43;;;;;;;26.90;13.45;;;-0.80;99.90;;;;;;5011752;28;20476;-70
2022/11/20 00:47:09;;;;;;;25.75;13.48;;;-0.80;99.90;;;;;;4992497;28;20403;-70
2022/11/20 00:49:34;;;;;;;28.75;13.77;;;-0.80;99.90;;;;;;5008572;28;20092;-70
2022/11/20 00:52:00;;;;;;;27.50;12.45;;;-0.80;99.90;;;;;;5009727;28;20127;-70
2022/11/20 00:54:26;;;;;;;27.65;13.35;;;-0.80;99.90;;;;;;5009412;28;20041;-70
2022/11/20 00:56:53;;;;;;;27.90;13.52;;;-0.80;99.90;;;;;;5009648;28;20037;-70
2022/11/20 00:59:19;;;;;;;29.90;14.45;;;-0.70;99.90;;;;;;5007521;28;20692;-70
2022/11/20 01:01:44;;;;;;;26.08;13.32;;;-0.70;99.90;;;;;;5010392;28;20129;-70
2022/11/20 01:04:10;;;;;;;28.20;13.30;;;-0.20;99.90;;;;;;5009916;28;20054;-70
2022/11/20 01:06:38;;;;;;;24.75;12.65;;;-0.70;99.90;;;;;;4995947;28;20140;-68
2022/11/20 01:09:11;;;;;;;26.20;12.68;;;-0.70;99.90;;;;;;5009690;28;20053;-68
2022/11/20 01:11:41;;;;;;;23.38;12.18;;;-0.70;99.90;;;;;;4992059;28;20482;-68
2022/11/20 01:14:10;;;;;;;24.83;12.75;;;-0.70;99.90;;;;;;5009384;28;20037;-69
2022/11/20 01:16:39;;;;;;;25.25;12.30;;;-0.70;99.90;;;;;;5006774;28;20069;-68
2022/11/20 01:19:09;;;;;;;21.35;12.10;;;-0.60;99.90;;;;;;5009666;28;20091;-68
2022/11/20 01:21:37;;;;;;;22.10;12.65;;;-0.60;99.90;;;;;;5009034;28;20419;-68
2022/11/20 01:24:05;;;;;;;23.42;11.77;;;-0.60;99.90;;;;;;5008751;28;20042;-68
2022/11/20 01:26:33;;;;;;;23.38;12.10;;;-0.60;99.90;;;;;;5009108;28;20038;-68
2022/11/20 01:29:00;;;;;;;23.80;12.55;;;-0.30;99.90;;;;;;5008443;28;20050;-68
2022/11/20 01:31:28;;;;;;;22.92;12.20;;;-0.30;99.90;;;;;;4992489;28;20052;-68
2022/11/20 01:33:57;;;;;;;24.88;13.30;;;-0.60;99.90;;;;;;5010523;28;20495;-68
2022/11/20 01:36:26;;;;;;;25.27;12.65;;;-0.60;99.90;;;;;;4991445;28;20042;-68
2022/11/20 01:38:57;;;;;;;22.15;11.57;;;-0.60;99.90;;;;;;5009412;28;20383;-68
2022/11/20 01:44:11;;;;;;;21.27;12.05;;;-0.60;99.90;;;;;;4994688;28;20088;-68
2022/11/20 01:46:40;;;;;;;22.58;12.13;;;-0.50;99.90;;;;;;5006681;28;20046;-68
2022/11/20 01:49:19;;;;;;;26.25;12.93;;;-0.50;99.90;;;;;;5008479;28;20049;-68
2022/11/20 01:51:58;;;;;;;21.92;12.18;;;-0.50;99.90;;;;;;5008749;28;20042;-68
2022/11/20 01:54:39;;;;;;;22.65;11.60;;;-0.50;99.90;;;;;;5009114;28;20049;-68
2022/11/20 01:57:08;;;;;;;23.90;12.48;;;-0.50;99.90;;;;;;5008561;28;20125;-68
2022/11/20 01:59:39;;;;;;;22.70;12.18;;;-0.50;99.90;;;;;;5008919;28;20133;-68
2022/11/20 02:02:05;;;;;;;24.85;11.25;;;-0.50;99.90;;;;;;5007376;28;20073;-67
2022/11/20 02:04:30;;;;;;;22.05;11.57;;;0.20;99.90;;;;;;5008941;28;20046;-68
2022/11/20 02:07:02;;;;;;;21.75;12.02;;;-0.40;99.90;;;;;;4998094;28;20505;-68
2022/11/20 02:09:28;;;;;;;22.42;12.60;;;-0.10;99.90;;;;;;5007996;28;20038;-68
2022/11/20 02:11:58;;;;;;;24.13;11.77;;;-0.40;99.90;;;;;;5010231;28;20041;-68
2022/11/20 02:14:27;;;;;;;20.10;11.35;;;-0.40;99.90;;;;;;5007848;28;20125;-68
2022/11/20 02:16:57;;;;;;;23.17;12.52;;;-0.40;99.90;;;;;;5012064;28;20034;-68
2022/11/20 02:19:30;;;;;;;23.40;11.98;;;-0.40;99.90;;;;;;5009715;28;20049;-68
2022/11/20 02:22:18;;;;;;;23.48;12.43;;;-0.40;99.90;;;;;;5009879;28;20088;-68
2022/11/20 02:24:45;;;;;;;22.67;11.90;;;-0.40;99.90;;;;;;4991161;28;20129;-68
2022/11/20 02:27:16;;;;;;;20.08;11.60;;;-0.40;99.90;;;;;;5009342;28;20030;-68
2022/11/20 02:29:52;;;;;;;25.58;12.10;;;0.00;99.90;;;;;;5006017;28;20072;-68
2022/11/20 02:32:30;;;;;;;21.77;10.93;;;-0.40;99.90;;;;;;5006982;28;20271;-68
2022/11/20 02:34:56;;;;;;;22.27;12.13;;;-0.40;99.90;;;;;;5008869;28;20490;-69
2022/11/20 02:37:26;;;;;;;21.92;11.65;;;-0.30;99.90;;;;;;5008794;28;20050;-68
2022/11/20 02:39:52;;;;;;;21.83;11.95;;;-0.30;99.90;;;;;;5008244;28;20104;-68
2022/11/20 02:42:18;;;;;;;20.30;11.38;;;-0.40;99.90;;;;;;4990205;28;20060;-68
2022/11/20 02:44:44;;;;;;;20.40;12.13;;;-0.30;99.90;;;;;;5008408;28;20073;-68
2022/11/20 02:47:10;;;;;;;21.98;11.45;;;-0.30;99.90;;;;;;5006953;28;20131;-68
2022/11/20 02:49:35;;;;;;;20.25;10.82;;;-0.30;99.90;;;;;;5008221;28;20080;-68
2022/11/20 02:52:01;;;;;;;20.30;11.13;;;-0.30;99.90;;;;;;4998997;28;20121;-68
2022/11/20 02:54:27;;;;;;;19.70;10.98;;;-0.30;99.90;;;;;;5007189;28;20499;-69
2022/11/20 02:56:53;;;;;;;22.40;11.35;;;0.20;99.90;;;;;;5006115;28;20046;-68
2022/11/20 02:59:18;;;;;;;19.17;11.70;;;-0.30;99.90;;;;;;5006896;28;20513;-68
2022/11/20 03:01:44;;;;;;;20.45;11.35;;;-0.30;99.90;;;;;;5008394;28;20212;-68
2022/11/20 03:04:10;;;;;;;22.77;11.35;;;-0.30;99.90;;;;;;5008383;28;20511;-68
2022/11/20 03:06:36;;;;;;;21.42;11.13;;;-0.20;99.90;;;;;;5007471;28;20046;-68
2022/11/20 03:09:01;;;;;;;20.98;11.35;;;0.40;99.90;;;;;;5008095;28;20042;-68
2022/11/20 03:11:28;;;;;;;19.73;11.00;;;-0.20;99.90;;;;;;5006153;28;20133;-68
2022/11/20 03:13:53;;;;;;;19.77;10.55;;;-0.20;99.90;;;;;;5005675;28;20044;-68
2022/11/20 03:16:21;;;;;;;23.08;11.52;;;-0.20;99.90;;;;;;5005013;28;20120;-69
2022/11/20 03:18:47;;;;;;;19.73;11.32;;;-0.20;99.90;;;;;;5001569;28;20130;-68
2022/11/20 03:21:14;;;;;;;20.13;11.27;;;-0.20;99.90;;;;;;5007706;28;20042;-68
2022/11/20 03:23:40;;;;;;;25.90;11.15;;;0.10;99.90;;;;;;5007578;28;20041;-68
2022/11/20 03:26:19;;;;;;;20.98;11.68;;;-0.20;99.90;;;;;;5008831;28;20399;-68
2022/11/20 03:28:50;;;;;;;19.83;10.93;;;-0.20;99.90;;;;;;5007372;28;20318;-69
2022/11/20 03:31:18;;;;;;;22.70;11.38;;;-0.20;99.90;;;;;;4989181;28;20432;-68
2022/11/20 03:33:44;;;;;;;21.27;11.43;;;-0.10;99.90;;;;;;5008955;28;20045;-68
2022/11/20 03:36:12;;;;;;;20.65;11.25;;;-0.10;99.90;;;;;;4998569;28;20041;-68
2022/11/20 03:38:38;;;;;;;19.20;10.80;;;-0.10;99.90;;;;;;4985641;28;20042;-69
2022/11/20 03:41:09;;;;;;;20.60;11.82;;;-0.20;99.90;;;;;;5007975;28;20041;-68
2022/11/20 03:43:35;;;;;;;21.80;11.35;;;0.30;99.90;;;;;;5007802;28;20402;-69
2022/11/20 03:46:01;;;;;;;20.10;11.32;;;-0.10;99.90;;;;;;5005521;28;20042;-68
2022/11/20 03:48:27;;;;;;;21.30;11.45;;;-0.10;99.90;;;;;;5007993;28;20037;-67
2022/11/20 03:51:06;;;;;;;23.52;12.20;;;-0.10;99.90;;;;;;5007438;28;20067;-68
2022/11/20 03:53:31;;;;;;;21.55;11.80;;;-0.10;99.90;;;;;;5006744;28;20502;-68
2022/11/20 03:55:57;;;;;;;23.33;10.98;;;-0.10;99.90;;;;;;5006999;28;20064;-68
2022/11/20 03:58:23;;;;;;;19.50;10.30;;;-0.10;99.90;;;;;;4988918;28;20030;-68
2022/11/20 04:00:49;;;;;;;18.10;10.48;;;-0.10;99.90;;;;;;5005626;28;20042;-68
2022/11/20 04:03:14;;;;;;;22.73;11.73;;;-0.10;99.90;;;;;;5007340;28;20138;-68
2022/11/20 04:05:40;;;;;;;20.55;10.13;;;-0.10;99.90;;;;;;5007249;28;20477;-68
2022/11/20 04:08:06;;;;;;;18.05;10.20;;;1.40;99.90;;;;;;5007365;28;20050;-69
2022/11/20 04:10:31;;;;;;;18.23;10.43;;;-0.10;99.90;;;;;;5010603;28;20495;-69
2022/11/20 04:12:57;;;;;;;17.45;9.90;;;0.00;99.90;;;;;;4996171;28;20049;-69
2022/11/20 04:15:23;;;;;;;18.50;9.73;;;-0.10;99.90;;;;;;5008006;28;20111;-69
2022/11/20 04:17:48;;;;;;;17.90;10.13;;;-0.10;99.90;;;;;;5009832;28;20042;-68
2022/11/20 04:20:14;;;;;;;18.05;10.13;;;-0.10;99.90;;;;;;5010659;28;20634;-68
2022/11/20 04:22:40;;;;;;;18.75;9.95;;;0.30;99.90;;;;;;5011536;28;20073;-68
2022/11/20 04:25:06;;;;;;;18.67;9.63;;;-0.10;99.90;;;;;;5011127;28;20037;-68
2022/11/20 04:27:32;;;;;;;19.65;10.15;;;-0.10;99.90;;;;;;5011369;28;20050;-68
2022/11/20 04:29:57;;;;;;;17.33;9.27;;;0.00;99.90;;;;;;5001222;28;20034;-68
2022/11/20 04:32:23;;;;;;;18.05;9.52;;;0.00;99.90;;;;;;5008979;28;20046;-68
2022/11/20 04:34:49;;;;;;;19.05;9.73;;;0.00;99.90;;;;;;5010727;28;20065;-68
2022/11/20 04:37:14;;;;;;;16.58;9.10;;;0.00;99.90;;;;;;5010906;28;20132;-68
2022/11/20 04:39:40;;;;;;;18.63;9.70;;;0.00;99.90;;;;;;5002596;28;20112;-68
2022/11/20 04:44:50;;;;;;;15.43;9.02;;;0.00;99.90;;;;;;5010213;28;20466;-68
2022/11/20 04:47:16;;;;;;;17.00;9.05;;;0.10;99.90;;;;;;4999841;28;20120;-69
2022/11/20 04:49:41;;;;;;;20.48;9.38;;;0.00;99.90;;;;;;5008364;28;20141;-69
2022/11/20 04:52:07;;;;;;;16.30;8.50;;;0.10;99.90;;;;;;4991803;28;20121;-69
2022/11/20 04:54:33;;;;;;;16.92;8.75;;;0.00;99.90;;;;;;4990395;28;20137;-68
2022/11/20 04:56:58;;;;;;;16.40;8.75;;;0.10;99.90;;;;;;5010498;28;20049;-68
2022/11/20 04:59:24;;;;;;;14.50;8.48;;;0.10;99.90;;;;;;5009823;28;20629;-68
2022/11/20 05:01:50;;;;;;;14.55;8.07;;;0.10;99.90;;;;;;4992191;28;20046;-69
2022/11/20 05:04:16;;;;;;;15.68;8.90;;;0.10;99.90;;;;;;5010929;28;20526;-69
2022/11/20 05:06:42;;;;;;;14.20;8.32;;;0.10;99.90;;;;;;5009116;28;20046;-68
2022/11/20 05:09:09;;;;;;;16.63;8.68;;;0.10;99.90;;;;;;5011210;28;20104;-68
2022/11/20 05:11:35;;;;;;;17.63;9.32;;;0.10;99.90;;;;;;5011256;28;20054;-69
2022/11/20 05:14:01;;;;;;;16.42;8.95;;;0.10;99.90;;;;;;5010094;28;20113;-68
2022/11/20 05:16:26;;;;;;;17.17;8.65;;;0.30;99.90;;;;;;5009995;28;20554;-69
2022/11/20 05:18:54;;;;;;;17.50;9.50;;;0.80;99.90;;;;;;5010558;28;20129;-68
2022/11/20 05:21:22;;;;;;;19.45;8.60;;;0.10;99.90;;;;;;5007613;28;20073;-68
2022/11/20 05:23:48;;;;;;;17.50;9.27;;;0.10;99.90;;;;;;5009712;28;20163;-68
2022/11/20 05:26:17;;;;;;;20.38;9.57;;;0.10;99.90;;;;;;5010059;28;20442;-68
2022/11/20 05:28:43;;;;;;;17.98;9.35;;;0.20;99.90;;;;;;5009731;28;20589;-68
2022/11/20 05:31:20;;;;;;;15.40;8.57;;;0.30;99.90;;;;;;4993047;28;20052;-68
2022/11/20 05:33:46;;;;;;;16.00;8.93;;;0.20;99.90;;;;;;5008568;28;20073;-68
2022/11/20 05:36:13;;;;;;;17.60;8.98;;;0.20;99.90;;;;;;5009484;28;20077;-68
2022/11/20 05:38:39;;;;;;;16.92;9.23;;;0.20;99.90;;;;;;5009981;28;20103;-68
2022/11/20 05:41:15;;;;;;;18.23;8.20;;;0.30;99.90;;;;;;4994231;28;20498;-68
2022/11/20 05:43:42;;;;;;;15.13;8.55;;;0.20;99.90;;;;;;5009765;28;20096;-68
2022/11/20 05:46:09;;;;;;;15.32;8.57;;;0.20;99.90;;;;;;5010108;28;20064;-68
2022/11/20 05:48:35;;;;;;;14.82;8.82;;;0.20;99.90;;;;;;5007645;28;20052;-69
2022/11/20 05:51:03;;;;;;;16.58;8.90;;;0.20;99.90;;;;;;5009819;28;20065;-69
2022/11/20 05:53:28;;;;;;;15.95;9.00;;;0.20;99.90;;;;;;5007880;28;20046;-69
2022/11/20 05:56:01;;;;;;;14.80;8.55;;;0.20;99.90;;;;;;5008732;28;20498;-68
2022/11/20 05:58:28;;;;;;;17.13;9.48;;;0.20;99.90;;;;;;4991607;28;20557;-69
2022/11/20 06:01:06;;;;;;;13.70;7.75;;;0.40;99.90;;;;;;4992651;28;20042;-68
2022/11/20 06:03:32;;;;;;;15.27;8.68;;;0.20;99.90;;;;;;5006547;28;20423;-69
2022/11/20 06:05:59;;;;;;;15.18;8.77;;;0.50;99.90;;;;;;5009016;28;20066;-68
2022/11/20 06:08:25;;;;;;;17.13;8.82;;;0.40;99.90;;;;;;5009243;28;20120;-67
2022/11/20 06:10:50;;;;;;;15.57;8.95;;;0.30;99.90;;;;;;5009509;28;20154;-68
2022/11/20 06:13:16;;;;;;;17.20;8.75;;;0.30;99.90;;;;;;5006704;28;20058;-69
2022/11/20 06:15:42;;;;;;;14.77;8.13;;;0.30;99.90;;;;;;5008883;28;20045;-69
2022/11/20 06:18:07;;;;;;;16.95;9.23;;;0.90;99.90;;;;;;5009296;28;20038;-69
2022/11/20 06:20:33;;;;;;;14.23;7.65;;;0.30;99.90;;;;;;5009838;28;20082;-68
2022/11/20 06:22:59;;;;;;;16.02;8.90;;;0.30;99.90;;;;;;5007411;28;20046;-69
2022/11/20 06:25:27;;;;;;;16.27;7.68;;;0.30;99.90;;;;;;5008330;28;20507;-69
2022/11/20 06:27:53;;;;;;;13.68;7.68;;;0.30;99.90;;;;;;4993311;28;20050;-69
2022/11/20 06:30:19;;;;;;;17.25;8.82;;;0.30;99.90;;;;;;5008874;28;20530;-69
2022/11/20 06:32:44;;;;;;;15.02;8.27;;;0.30;99.90;;;;;;5007405;28;20038;-69
2022/11/20 06:35:10;;;;;;;13.60;7.93;;;0.30;99.90;;;;;;5008825;28;20490;-69
2022/11/20 06:37:36;;;;;;;13.82;7.60;;;0.30;99.90;;;;;;5005153;28;20506;-68
2022/11/20 06:40:01;;;;;;;13.93;7.90;;;0.30;99.90;;;;;;5007680;28;20125;-69
2022/11/20 06:42:27;;;;;;;14.43;7.90;;;0.30;99.90;;;;;;5008134;28;20057;-69
2022/11/20 06:44:53;;;;;;;15.43;8.60;;;0.30;99.90;;;;;;5007830;28;20462;-69
2022/11/20 06:47:19;;;;;;;14.90;7.88;;;0.30;99.90;;;;;;4999366;28;20042;-69
2022/11/20 06:49:44;;;;;;;15.63;8.43;;;0.30;99.90;;;;;;5006409;28;20119;-69
2022/11/20 06:52:10;;;;;;;16.40;8.75;;;0.30;99.90;;;;;;4990159;28;20701;-69
2022/11/20 06:54:35;;;;;;;14.20;8.10;;;0.40;99.90;;;;;;5003195;28;20407;-69
2022/11/20 06:57:01;;;;;;;15.68;8.55;;;0.90;99.90;;;;;;5005779;28;20042;-69
2022/11/20 06:59:27;;;;;;;15.02;8.63;;;0.30;99.90;;;;;;5004879;28;20082;-69
2022/11/20 07:01:52;;;;;;;15.48;8.32;;;0.30;99.90;;;;;;4992274;28;20053;-69
2022/11/20 07:04:18;;;;;;;15.43;8.35;;;0.30;99.90;;;;;;5002937;28;20096;-69
2022/11/20 07:06:44;;;;;;;17.35;8.73;;;0.50;99.90;;;;;;5003554;28;20058;-69
2022/11/20 07:09:09;;;;;;;16.33;8.18;;;0.30;99.90;;;;;;5005440;28;20096;-69
2022/11/20 07:11:35;;;;;;;15.55;8.40;;;0.40;99.90;;;;;;4983896;28;20050;-69
2022/11/20 07:14:01;;;;;;;17.15;8.82;;;0.40;99.90;;;;;;5002266;28;20030;-69
2022/11/20 07:16:27;;;;;;;16.63;8.63;;;0.40;99.90;;;;;;5002812;28;20045;-69
2022/11/20 07:18:52;;;;;;;17.95;8.90;;;0.40;99.90;;;;;;5001685;28;20067;-69
2022/11/20 07:21:18;;;;;;;17.10;9.00;;;0.40;99.90;;;;;;5007139;28;20532;-69
2022/11/20 07:23:44;;;;;;;17.55;9.05;;;0.40;99.90;;;;;;5007595;28;20068;-69
2022/11/20 07:26:10;;;;;;;15.27;8.32;;;0.40;99.90;;;;;;5004128;28;20084;-69
2022/11/20 07:28:36;;;;;;;14.95;8.52;;;0.40;99.90;;;;;;4986349;28;20061;-69
2022/11/20 07:31:03;;;;;;;18.45;9.32;;;0.40;99.90;;;;;;4980437;28;20152;-70
2022/11/20 07:33:29;;;;;;;15.95;8.85;;;0.40;99.90;;;;;;4998467;28;20124;-70
2022/11/20 07:35:55;;;;;;;17.30;9.45;;;0.50;99.90;;;;;;5002259;28;20088;-68
2022/11/20 07:38:21;;;;;;;17.38;9.27;;;0.40;99.90;;;;;;5000138;28;20490;-68
2022/11/20 07:40:46;;;;;;;16.05;9.15;;;0.40;99.90;;;;;;5004965;28;20038;-68
2022/11/20 07:43:12;;;;;;;16.70;8.77;;;0.40;99.90;;;;;;4975783;28;20056;-68
2022/11/20 07:45:38;;;;;;;16.15;9.30;;;0.40;99.90;;;;;;4995257;28;20053;-68
2022/11/20 07:48:04;;;;;;;17.15;9.63;;;0.50;99.90;;;;;;5004653;28;20399;-68
2022/11/20 07:50:29;;;;;;;17.70;8.98;;;0.40;99.90;;;;;;4993993;28;20407;-69
2022/11/20 07:53:03;;;;;;;16.80;9.32;;;0.40;99.90;;;;;;5004112;28;20057;-68
2022/11/20 07:55:29;;;;;;;14.68;7.82;;;0.70;99.90;;;;;;5000703;28;20346;-68
2022/11/20 07:57:58;;;;;;;14.73;8.63;;;0.50;99.90;;;;;;4997067;28;20597;-68
2022/11/20 08:00:27;;;;;;;16.58;8.90;;;0.50;99.90;;;;;;5001216;28;20527;-75
2022/11/20 08:02:53;;;;;;;17.42;9.15;;;0.50;99.90;;;;;;4999820;28;20760;-74
2022/11/20 08:05:18;;;;;;;16.88;9.32;;;0.50;99.90;;;;;;4999380;28;20607;-74
2022/11/20 08:07:44;;;;;;;18.15;9.85;;;0.50;99.90;;;;;;5002531;28;20046;-74
2022/11/20 08:10:12;;;;;;;15.70;8.80;;;0.50;99.90;;;;;;4997915;28;20042;-74
2022/11/20 08:15:31;;;;;;;18.10;9.18;;;0.50;99.90;;;;;;4974945;28;20668;-74
2022/11/20 08:18:05;;;;;;;16.70;9.57;;;1.10;99.90;;;;;;4980612;28;20042;-74
2022/11/20 08:20:31;;;;;;;15.65;8.65;;;0.50;99.90;;;;;;5001536;28;20066;-74
2022/11/20 08:23:01;;;;;;;16.77;9.52;;;0.50;99.90;;;;;;4965738;28;20538;-74
2022/11/20 08:25:30;;;;;;;16.67;9.65;;;1.20;99.90;;;;;;5001769;28;20058;-74
2022/11/20 08:28:00;;;;;;;19.50;10.13;;;0.50;99.90;;;;;;4998008;28;20045;-74
2022/11/20 08:30:26;;;;;;;19.92;9.40;;;0.60;99.90;;;;;;4999303;28;20060;-74
2022/11/20 08:32:53;;;;;;;19.35;9.38;;;0.50;99.90;;;;;;5001514;28;20096;-74
2022/11/20 08:35:20;;;;;;;17.90;9.88;;;0.50;99.90;;;;;;4984617;28;20041;-74
2022/11/20 08:37:49;;;;;;;18.20;9.63;;;0.50;99.90;;;;;;4983069;28;20403;-74
2022/11/20 08:40:15;;;;;;;19.20;10.13;;;0.50;99.90;;;;;;5000371;28;20411;-73
2022/11/20 08:42:51;;;;;;;19.10;10.02;;;0.50;99.90;;;;;;4990885;28;20049;-74
2022/11/20 08:45:18;;;;;;;16.95;9.73;;;0.50;99.90;;;;;;4985659;28;20039;-73
2022/11/20 08:47:44;;;;;;;18.00;9.57;;;1.70;99.90;;;;;;4983204;28;20123;-74
2022/11/20 08:50:11;;;;;;;18.10;10.38;;;0.50;99.90;;;;;;4984928;28;20046;-74
2022/11/20 08:52:37;;;;;;;16.50;9.52;;;0.50;99.90;;;;;;4987809;28;20046;-73
2022/11/20 08:55:05;;;;;;;19.80;10.18;;;0.50;99.90;;;;;;4989047;28;20050;-74
2022/11/20 08:57:35;;;;;;;19.02;9.82;;;0.50;99.90;;;;;;4991772;28;20111;-74
2022/11/20 09:00:02;;;;;;;15.68;9.40;;;0.50;99.90;;;;;;4994090;28;20041;-74
2022/11/20 09:02:28;;;;;;;18.15;10.32;;;0.50;99.90;;;;;;4996644;28;21310;-74
2022/11/20 09:04:56;;;;;;;16.92;9.45;;;0.50;99.90;;;;;;4999391;28;20053;-74
2022/11/20 09:07:22;;;;;;;18.88;9.88;;;0.50;99.90;;;;;;4994956;28;20054;-73
2022/11/20 09:09:48;;;;;;;18.23;9.70;;;0.50;99.90;;;;;;4994941;28;20112;-73
2022/11/20 09:12:13;;;;;;;20.30;10.88;;;0.50;99.90;;;;;;4998409;28;20590;-74
2022/11/20 09:14:39;;;;;;;17.08;9.15;;;0.60;99.90;;;;;;4998273;28;20053;-74
2022/11/20 09:17:07;;;;;;;18.08;9.82;;;0.60;99.90;;;;;;5001357;28;20049;-73
2022/11/20 09:19:33;;;;;;;17.25;9.95;;;0.60;99.90;;;;;;5000475;28;20466;-73
2022/11/20 09:21:59;;;;;;;16.20;8.98;;;0.60;99.90;;;;;;4998667;28;20092;-73
2022/11/20 09:24:26;;;;;;;17.23;9.95;;;0.60;99.90;;;;;;4993629;28;20503;-74
2022/11/20 09:26:52;;;;;;;17.65;9.57;;;1.00;99.90;;;;;;5002463;28;20380;-74
2022/11/20 09:29:18;;;;;;;16.52;9.63;;;0.70;99.90;;;;;;4999893;28;20112;-74
2022/11/20 09:31:44;;;;;;;18.02;9.85;;;0.70;99.90;;;;;;4987476;28;20058;-74
2022/11/20 09:34:09;;;;;;;17.48;10.00;;;0.70;99.90;;;;;;5006153;28;20556;-74
2022/11/20 09:36:35;;;;;;;17.35;8.82;;;0.70;99.90;;;;;;5000180;28;20038;-74
2022/11/20 09:39:01;;;;;;;17.92;9.38;;;0.70;99.90;;;;;;5004355;28;20164;-74
2022/11/20 09:41:50;;;;;;;16.42;9.48;;;0.80;99.90;;;;;;5005161;28;20392;-74
2022/11/20 09:44:43;;;;;;;19.25;10.23;;;0.80;99.90;;;;;;5004772;28;20088;-74
2022/11/20 09:47:25;;;;;;;16.63;8.98;;;0.80;99.90;;;;;;5007159;28;20407;-73
2022/11/20 09:50:06;;;;;;;16.95;9.77;;;0.80;99.90;;;;;;4992025;28;20763;-74
2022/11/20 09:52:40;;;;;;;15.80;8.88;;;0.80;99.90;;;;;;5004653;28;20100;-74
2022/11/20 09:55:10;;;;;;;16.13;9.40;;;0.80;99.90;;;;;;5004006;28;20045;-74
2022/11/20 09:57:39;;;;;;;19.77;9.75;;;0.90;99.90;;;;;;4987567;28;20046;-75
2022/11/20 10:00:10;;;;;;;17.42;10.05;;;0.90;99.90;;;;;;5003807;28;20046;-74
2022/11/20 10:02:54;;;;;;;16.63;9.30;;;0.90;99.90;;;;;;5005047;28;20045;-74
2022/11/20 10:05:56;;;;;;;18.15;8.88;;;0.90;99.90;;;;;;5003583;28;20068;-74
2022/11/20 10:08:25;;;;;;;15.50;8.88;;;0.90;99.90;;;;;;4994942;28;20392;-75
2022/11/20 10:10:58;;;;;;;17.38;9.15;;;0.90;99.90;;;;;;5006270;28;20130;-74
2022/11/20 10:13:48;;;;;;;15.68;8.98;;;1.50;99.90;;;;;;5001899;28;20038;-75
2022/11/20 10:16:34;;;;;;;15.10;9.07;;;1.00;99.90;;;;;;4987417;28;20559;-75
2022/11/20 10:19:09;;;;;;;14.98;8.63;;;0.90;99.90;;;;;;5006082;28;20041;-75
2022/11/20 10:21:41;;;;;;;14.55;7.70;;;1.00;99.90;;;;;;5007115;28;20042;-76
2022/11/20 10:24:49;;;;;;;14.48;8.70;;;1.00;99.90;;;;;;5008191;28;20046;-76
2022/11/20 10:27:35;;;;;;;17.08;8.85;;;1.10;99.90;;;;;;5003087;28;20134;-75
2022/11/20 10:30:05;;;;;;;14.35;8.65;;;1.10;99.90;;;;;;5007749;28;20037;-75
2022/11/20 10:32:42;;;;;;;15.77;9.02;;;1.10;99.90;;;;;;4988780;28;20050;-75
2022/11/20 10:35:14;;;;;;;15.75;9.25;;;1.20;99.90;;;;;;4989692;28;20053;-75
2022/11/20 10:37:46;;;;;;;15.02;8.95;;;1.20;99.90;;;;;;5005747;28;20042;-75
2022/11/20 10:40:20;;;;;;;15.07;8.65;;;1.20;99.90;;;;;;5007008;28;20057;-75
2022/11/20 10:43:00;;;;;;;16.77;9.85;;;1.20;99.90;;;;;;5003050;28;20399;-75
2022/11/20 10:45:26;;;;;;;19.20;10.05;;;1.20;99.90;;;;;;5004908;28;20042;-77
2022/11/20 10:48:07;;;;;;;18.40;9.43;;;1.20;99.90;;;;;;5006957;28;20147;-76
2022/11/20 10:50:36;;;;;;;14.93;8.30;;;1.20;99.90;;;;;;5005030;28;20554;-76
2022/11/20 10:53:37;;;;;;;16.05;9.43;;;1.20;99.90;;;;;;5005182;28;20042;-76
2022/11/20 10:56:26;;;;;;;17.38;9.65;;;1.20;99.90;;;;;;4982406;28;20190;-76
2022/11/20 10:59:03;;;;;;;16.35;8.82;;;1.20;99.90;;;;;;5005591;28;20736;-76
2022/11/20 11:01:29;;;;;;;16.08;9.50;;;1.20;99.90;;;;;;4987726;28;20049;-76
2022/11/20 11:03:57;;;;;;;17.50;9.35;;;1.20;99.90;;;;;;5004952;28;20045;-76
2022/11/20 11:06:25;;;;;;;17.08;9.05;;;1.20;99.90;;;;;;5006168;28;20054;-77
2022/11/20 11:08:55;;;;;;;17.50;8.77;;;1.20;99.90;;;;;;5006048;28;20038;-76
2022/11/20 11:11:26;;;;;;;16.77;9.65;;;1.20;99.90;;;;;;4988870;28;20107;-76
2022/11/20 11:13:52;;;;;;;18.58;9.00;;;1.20;99.90;;;;;;4998011;28;20033;-76
2022/11/20 11:16:25;;;;;;;16.25;8.60;;;1.20;99.90;;;;;;5006866;28;20052;-76
2022/11/20 11:18:51;;;;;;;18.27;9.35;;;1.20;99.90;;;;;;5004470;28;20042;-76
2022/11/20 11:21:23;;;;;;;19.23;10.88;;;1.50;99.90;;;;;;4987938;28;20137;-76
2022/11/20 11:24:01;;;;;;;18.58;9.68;;;1.20;99.90;;;;;;5004623;28;20052;-76
2022/11/20 11:26:27;;;;;;;15.48;8.52;;;1.60;99.90;;;;;;4998822;28;20108;-76
2022/11/20 11:28:57;;;;;;;15.32;8.15;;;1.30;99.90;;;;;;5004996;28;20042;-76
2022/11/20 11:31:25;;;;;;;15.68;9.00;;;1.30;99.90;;;;;;5004985;28;20503;-76
2022/11/20 11:33:50;;;;;;;16.33;8.32;;;1.30;99.90;;;;;;5006102;28;20042;-76
2022/11/20 11:36:24;;;;;;;15.75;8.18;;;1.40;99.90;;;;;;5006771;28;20458;-77
2022/11/20 11:38:52;;;;;;;13.07;7.57;;;1.40;99.90;;;;;;5005237;28;20458;-76
2022/11/20 11:41:23;;;;;;;14.80;7.38;;;1.40;99.90;;;;;;5001580;28;20069;-76
2022/11/20 11:46:56;;;;;;;12.32;6.95;;;1.40;99.90;;;;;;5005210;28;20553;-76
2022/11/20 11:49:22;;;;;;;15.20;6.22;;;1.40;99.90;;;;;;5006763;28;20124;-77
2022/11/20 11:52:01;;;;;;;12.98;6.65;;;1.50;99.90;;;;;;5003808;28;20487;-76
2022/11/20 11:54:30;;;;;;;12.10;6.57;;;1.50;99.90;;;;;;4998159;28;20415;-76
2022/11/20 11:57:00;;;;;;;11.93;6.25;;;1.60;99.90;;;;;;5004703;28;20034;-76
2022/11/20 11:59:44;;;;;;;13.38;6.35;;;1.80;99.90;;;;;;5005979;28;20041;-76
2022/11/20 12:02:41;;;;;;;11.27;6.15;;;1.60;99.90;;;;;;5001862;28;20038;-76
2022/11/20 12:05:29;;;;;;;11.10;5.45;;;1.70;99.90;;;;;;5001070;28;20111;-76
2022/11/20 12:08:32;;;;;;;11.55;5.60;;;1.80;99.90;;;;;;5004791;28;20049;-76
2022/11/20 12:11:12;;;;;;;10.93;6.35;;;1.90;99.90;;;;;;4986008;28;20048;-76
2022/11/20 12:13:48;;;;;;;11.15;5.95;;;1.90;99.90;;;;;;4995428;28;20041;-77
2022/11/20 12:16:17;;;;;;;11.00;5.47;;;2.00;99.90;;;;;;4998763;28;20042;-77
2022/11/20 12:18:45;;;;;;;11.70;6.80;;;2.10;99.90;;;;;;5001354;28;21798;-77
2022/11/20 12:21:26;;;;;;;13.15;7.65;;;2.10;99.90;;;;;;5004700;28;20449;-77
2022/11/20 12:24:11;;;;;;;10.95;6.00;;;2.20;99.90;;;;;;5005803;28;20070;-77
2022/11/20 12:26:51;;;;;;;10.68;5.57;;;2.30;99.90;;;;;;4985993;28;20463;-77
2022/11/20 12:29:23;;;;;;;10.30;5.63;;;2.40;99.90;;;;;;5005447;28;20934;-77
2022/11/20 12:31:56;;;;;;;11.10;5.47;;;2.50;99.90;;;;;;5002191;28;20455;-76
2022/11/20 12:34:38;;;;;;;9.60;5.00;;;2.50;99.90;;;;;;4983235;28;20089;-77
2022/11/20 12:37:45;;;;;;;9.43;5.55;;;2.60;99.90;;;;;;5001513;28;21029;-78
2022/11/20 12:40:35;;;;;;;9.55;4.68;;;2.60;99.90;;;;;;5005384;28;20102;-77
2022/11/20 12:46:33;;;;;;;9.27;4.85;;;2.60;99.90;;;;;;4998392;28;20092;-77
2022/11/20 12:49:17;;;;;;;12.32;5.63;;;2.70;99.90;;;;;;5006375;28;20037;-77
2022/11/20 12:52:06;;;;;;;10.68;5.60;;;2.70;99.90;;;;;;4999979;28;20054;-76
2022/11/20 12:54:52;;;;;;;9.63;4.88;;;2.60;99.90;;;;;;5002118;28;20046;-77
2022/11/20 12:57:52;;;;;;;11.88;5.10;;;2.60;99.90;;;;;;4999623;28;20047;-77
2022/11/20 13:00:23;;;;;;;10.07;5.43;;;2.60;99.90;;;;;;4983030;28;20042;-77
2022/11/20 13:03:25;;;;;;;8.90;4.95;;;2.60;99.90;;;;;;4952611;28;20054;-77
2022/11/20 13:06:26;;;;;;;;;;;2.60;99.90;;;;;;4997356;28;20054;-77
2022/11/20 13:08:56;;;;;;;9.85;5.00;;;2.70;99.90;;;;;;4919582;29;19929;-77